Big Bow, Kansas
Current Conditions -  °F | °C
As of 8:15 AM on Friday 24 Oct 2014 (Local Time) from K3K3 Reporting Station
Haze Haze  
Wind Chill: 39°   Ceiling: Unl
Heat Index: 43°   Visibility: 5mi
Dew Point: 43°   Wind: 7mph
Humidity: 100%   Direction: 260°W
Pressure: 30.09"   Gusts: NA
Location:  37.5626°N, 101.689°W
Report Text: K3K3 241315Z AUTO 26006KT 5SM BR CLR 06/06 A3009 RMK AO2
Loading
Personal Weather Stations






























Interactive Weather Map
Tropical Storm Tracking
New forecast layout! Learn more

10-Day Weather Forecast

Advertisements
Track Severe Weather on mobile